Time;durP1;ratioP1;P1;durP2;ratioP2;P2;SDS_P1;SDS_P2;PMS_P1;PMS_P2;Temp;Humidity;BMP_temperature;BMP_pressure;BME280_temperature;BME280_humidity;BME280_pressure;Samples;Min_cycle;Max_cycle;Signal;HPM_P1;HPM_P2
2022/08/03 00:00:19;;;;;;;2.78;2.60;;;;;;;25.71;92.46;100063.34;5051600;28;20199;-76
2022/08/03 00:02:46;;;;;;;3.22;2.67;;;;;;;25.60;96.02;100067.38;5071664;28;20203;-76
2022/08/03 00:05:13;;;;;;;2.50;2.40;;;;;;;25.36;100.00;100067.59;5070939;28;20313;-76
2022/08/03 00:07:40;;;;;;;9.00;2.60;;;;;;;25.33;100.00;100073.06;5070164;28;20217;-76
2022/08/03 00:10:07;;;;;;;2.70;2.50;;;;;;;25.12;100.00;100053.63;5071351;28;20205;-76
2022/08/03 00:12:35;;;;;;;3.45;3.10;;;;;;;25.04;100.00;100067.25;5069148;28;20234;-76
2022/08/03 00:15:02;;;;;;;5.85;2.95;;;;;;;25.00;100.00;100064.81;5051512;28;20259;-75
2022/08/03 00:17:30;;;;;;;6.55;2.58;;;;;;;25.12;100.00;100066.91;5074190;28;20214;-76
2022/08/03 00:19:57;;;;;;;3.45;2.80;;;;;;;25.01;100.00;100051.47;5082114;28;20194;-76
2022/08/03 00:22:24;;;;;;;3.95;2.60;;;;;;;25.13;100.00;100066.84;5088563;28;20198;-76
2022/08/03 00:24:51;;;;;;;3.40;2.92;;;;;;;25.23;98.75;100077.03;5090076;28;20201;-76
2022/08/03 00:27:17;;;;;;;3.28;3.08;;;;;;;25.23;94.64;100072.59;5080584;28;20710;-76
2022/08/03 00:29:44;;;;;;;3.78;3.10;;;;;;;25.30;92.07;100066.06;5070243;28;20217;-76
2022/08/03 00:32:11;;;;;;;2.90;2.70;;;;;;;25.33;89.23;100078.38;5085417;28;20198;-75
2022/08/03 00:34:39;;;;;;;3.30;3.00;;;;;;;25.41;87.57;100074.41;5089765;28;20209;-76
2022/08/03 00:37:06;;;;;;;4.35;2.75;;;;;;;25.40;86.59;100077.16;5054325;28;20222;-76
2022/08/03 00:39:33;;;;;;;3.33;3.13;;;;;;;25.39;86.43;100075.44;5080292;28;20670;-76
2022/08/03 00:42:02;;;;;;;3.60;3.30;;;;;;;25.48;85.19;100078.50;5086630;28;20197;-75
2022/08/03 00:44:29;;;;;;;3.10;2.90;;;;;;;25.49;85.38;100077.59;5058048;28;20194;-76
2022/08/03 00:46:56;;;;;;;3.30;2.80;;;;;;;25.55;84.32;100081.78;5075218;28;20210;-76
2022/08/03 00:49:23;;;;;;;3.13;2.92;;;;;;;25.61;84.01;100084.16;5086299;28;20209;-76
2022/08/03 00:51:51;;;;;;;7.72;3.35;;;;;;;25.62;83.89;100080.56;5077403;28;20223;-76
2022/08/03 00:54:19;;;;;;;3.33;3.17;;;;;;;25.62;83.79;100080.56;5074736;28;20650;-76
2022/08/03 00:56:47;;;;;;;8.32;3.17;;;;;;;25.68;83.31;100080.28;5085646;28;20222;-76
2022/08/03 00:59:14;;;;;;;3.40;3.20;;;;;;;25.75;83.16;100080.84;5073537;28;20203;-75
2022/08/03 01:01:41;;;;;;;4.45;3.03;;;;;;;25.84;82.17;100083.06;5086229;28;20201;-76
2022/08/03 01:04:08;;;;;;;3.50;3.20;;;;;;;25.88;82.16;100072.22;5093610;28;20226;-76
2022/08/03 01:06:43;;;;;;;4.57;3.00;;;;;;;25.95;81.89;100083.41;5045570;28;20207;-76
2022/08/03 01:09:19;;;;;;;3.30;3.10;;;;;;;26.00;81.56;100076.09;5072939;28;20198;-76
2022/08/03 01:11:51;;;;;;;12.10;3.50;;;;;;;26.00;81.54;100076.97;5073497;28;20199;-76
2022/08/03 01:14:24;;;;;;;3.22;2.95;;;;;;;26.03;82.33;100082.13;5088292;28;20202;-76
2022/08/03 01:16:57;;;;;;;3.08;2.90;;;;;;;26.08;82.32;100085.41;5093352;28;20222;-75
2022/08/03 01:19:39;;;;;;;3.70;3.40;;;;;;;26.00;81.55;100074.31;5080608;28;20199;-76
2022/08/03 01:22:27;;;;;;;3.50;3.20;;;;;;;26.01;81.72;100075.16;5073169;28;20194;-76
2022/08/03 01:25:03;;;;;;;4.32;3.15;;;;;;;25.93;84.08;100070.22;5073993;28;20919;-76
2022/08/03 01:27:38;;;;;;;4.35;3.20;;;;;;;25.90;84.20;100073.00;5090227;28;20204;-75
2022/08/03 01:30:08;;;;;;;5.00;3.13;;;;;;;25.91;84.93;100071.22;5073649;28;20194;-74
2022/08/03 01:32:41;;;;;;;3.38;3.08;;;;;;;25.78;86.57;100060.31;5057316;28;20226;-73
2022/08/03 01:35:11;;;;;;;4.82;2.92;;;;;;;25.83;85.13;100066.25;5092763;28;20689;-74
2022/08/03 01:37:43;;;;;;;3.25;2.92;;;;;;;25.91;84.19;100085.38;5018618;28;20211;-75
2022/08/03 01:40:13;;;;;;;4.22;2.80;;;;;;;25.68;84.81;100085.59;5072952;28;20595;-75
2022/08/03 01:42:42;;;;;;;2.78;2.58;;;;;;;25.20;85.44;100008.16;5056180;28;20645;-75
2022/08/03 01:45:13;;;;;;;2.97;2.60;;;;;;;25.73;85.98;100088.88;5075047;28;20206;-75
2022/08/03 01:47:42;;;;;;;3.03;2.83;;;;;;;25.45;87.01;100051.25;5086224;28;20716;-75
2022/08/03 01:50:12;;;;;;;2.80;2.60;;;;;;;25.46;87.65;100080.41;5091778;28;20797;-75
2022/08/03 01:52:41;;;;;;;2.85;2.70;;;;;;;25.52;87.25;100074.81;5057426;28;20195;-75
2022/08/03 01:55:10;;;;;;;3.20;2.90;;;;;;;25.52;87.22;100080.13;5093074;28;20255;-75
2022/08/03 01:57:39;;;;;;;3.65;2.75;;;;;;;25.55;88.17;100079.13;5079914;28;20605;-75
2022/08/03 02:00:08;;;;;;;4.00;2.80;;;;;;;25.16;90.77;100024.25;5053603;28;20203;-75
2022/08/03 02:02:37;;;;;;;3.50;3.20;;;;;;;25.52;91.80;100084.56;5072339;28;20677;-74
2022/08/03 02:05:07;;;;;;;3.70;3.33;;;;;;;25.46;92.62;100079.53;5072369;28;20226;-74
2022/08/03 02:07:35;;;;;;;3.08;2.88;;;;;;;25.54;92.07;100083.56;5081181;28;20198;-74
2022/08/03 02:10:04;;;;;;;3.25;3.00;;;;;;;25.46;91.03;100063.59;5085254;28;20194;-75
2022/08/03 02:12:32;;;;;;;3.88;2.80;;;;;;;25.46;91.63;100066.25;5073435;28;20198;-75
2022/08/03 02:15:01;;;;;;;3.13;2.92;;;;;;;25.60;89.19;100077.13;5072168;28;20205;-75
2022/08/03 02:17:29;;;;;;;3.60;2.90;;;;;;;25.50;88.56;100052.78;5072087;28;20219;-75
2022/08/03 02:20:00;;;;;;;3.45;3.15;;;;;;;25.58;88.47;100073.66;5089441;28;20198;-75
2022/08/03 02:22:29;;;;;;;3.58;2.58;;;;;;;25.57;87.22;100067.50;5086234;28;20240;-75
2022/08/03 02:24:56;;;;;;;2.72;2.63;;;;;;;25.53;86.05;100070.38;5092096;28;20213;-75
2022/08/03 02:27:25;;;;;;;2.67;2.58;;;;;;;25.49;85.61;100068.75;5073540;28;20211;-75
2022/08/03 02:29:57;;;;;;;3.55;2.95;;;;;;;25.41;86.19;100061.16;5072226;28;20213;-75
2022/08/03 02:32:29;;;;;;;3.33;3.03;;;;;;;25.27;86.54;100036.16;5071961;28;20210;-75
2022/08/03 02:35:00;;;;;;;5.25;2.80;;;;;;;25.49;85.99;100079.38;5052158;28;20259;-75
2022/08/03 02:37:32;;;;;;;3.33;3.03;;;;;;;25.52;85.07;100074.81;5068092;28;20219;-75
2022/08/03 02:40:02;;;;;;;2.70;2.50;;;;;;;25.54;83.14;100064.13;5091810;28;20194;-75
2022/08/03 02:42:31;;;;;;;3.17;2.80;;;;;;;25.50;84.83;100073.16;5079063;28;20221;-75
2022/08/03 02:45:01;;;;;;;3.00;2.80;;;;;;;25.47;85.06;100065.31;5072356;28;20191;-75
2022/08/03 02:47:29;;;;;;;3.80;2.63;;;;;;;25.45;85.22;100061.84;5089683;28;20198;-76
2022/08/03 02:50:00;;;;;;;3.05;2.80;;;;;;;25.39;85.62;100068.34;5089391;28;20217;-76
2022/08/03 02:52:29;;;;;;;3.25;3.05;;;;;;;25.42;85.96;100077.94;5091463;28;20213;-76
2022/08/03 02:54:59;;;;;;;3.00;2.72;;;;;;;25.34;86.25;100075.63;5074195;28;20198;-76
2022/08/03 02:57:27;;;;;;;2.80;2.63;;;;;;;25.32;86.48;100081.94;5076276;28;20229;-75
2022/08/03 02:59:56;;;;;;;3.03;2.70;;;;;;;25.33;87.17;100075.72;5071520;28;20217;-74
2022/08/03 03:02:23;;;;;;;3.58;3.28;;;;;;;25.36;87.40;100079.09;5084080;28;20198;-74
2022/08/03 03:04:52;;;;;;;3.55;2.70;;;;;;;25.15;89.89;100064.97;5090622;28;20241;-75
2022/08/03 03:07:21;;;;;;;2.63;2.42;;;;;;;25.29;91.56;100082.09;5085287;28;20195;-75
2022/08/03 03:09:48;;;;;;;3.20;2.90;;;;;;;25.01;96.73;100070.03;5080775;28;20190;-74
2022/08/03 03:12:17;;;;;;;3.55;3.08;;;;;;;24.96;100.00;100080.00;5090688;28;20191;-75
2022/08/03 03:14:43;;;;;;;5.15;3.00;;;;;;;24.87;100.00;100074.22;5076904;28;20194;-74
2022/08/03 03:17:12;;;;;;;4.20;3.70;;;;;;;24.78;100.00;100079.91;5070986;28;20207;-75
2022/08/03 03:19:40;;;;;;;7.30;3.72;;;;;;;24.65;100.00;100090.16;5071238;28;20199;-74
2022/08/03 03:22:08;;;;;;;4.53;4.22;;;;;;;24.53;100.00;100090.69;5072407;28;20260;-75
2022/08/03 03:24:37;;;;;;;4.47;4.15;;;;;;;24.31;100.00;100097.81;5072996;28;21002;-75
2022/08/03 03:27:05;;;;;;;7.90;4.28;;;;;;;24.09;100.00;100085.38;5078658;28;20202;-75
2022/08/03 03:29:33;;;;;;;5.40;4.25;;;;;;;24.15;100.00;100102.88;5052095;28;20203;-75
2022/08/03 03:32:01;;;;;;;4.93;4.53;;;;;;;24.12;100.00;100100.28;5070875;28;20202;-77
2022/08/03 03:34:29;;;;;;;6.03;4.97;;;;;;;24.10;100.00;100108.31;5070795;28;20195;-76
2022/08/03 03:36:57;;;;;;;6.95;4.45;;;;;;;23.88;100.00;100080.94;5070907;28;20199;-77
2022/08/03 03:39:24;;;;;;;8.88;5.13;;;;;;;24.12;100.00;100117.06;5076017;28;20626;-74
2022/08/03 03:41:53;;;;;;;14.07;4.82;;;;;;;24.27;100.00;100114.75;5089851;28;20198;-74
2022/08/03 03:44:20;;;;;;;6.25;4.72;;;;;;;24.23;100.00;100105.19;5077140;28;21161;-76
2022/08/03 03:46:47;;;;;;;4.90;4.50;;;;;;;24.29;100.00;100107.63;5034539;28;20783;-75
2022/08/03 03:49:14;;;;;;;7.32;4.97;;;;;;;24.84;100.00;100122.97;5080104;28;20198;-76
2022/08/03 03:51:41;;;;;;;4.68;4.20;;;;;;;25.46;100.00;100135.28;5073082;28;20207;-75
2022/08/03 03:54:08;;;;;;;5.10;4.50;;;;;;;25.90;99.27;100123.50;5070508;28;20202;-75
2022/08/03 03:56:34;;;;;;;5.93;4.05;;;;;;;26.51;92.74;100136.50;5072952;28;20195;-75
2022/08/03 03:59:03;;;;;;;5.78;4.13;;;;;;;27.09;87.81;100139.78;5069980;28;20230;-75
2022/08/03 04:01:31;;;;;;;5.40;3.58;;;;;;;27.23;85.64;100141.72;5051719;28;20183;-75
2022/08/03 04:10:57;;;;;;;3.78;3.45;;;;;;;27.26;84.32;100147.75;5069815;28;20729;-75
2022/08/03 04:12:14;;;;;;;3.20;3.00;;;;;;;28.01;73.72;100131.25;5069987;28;20193;-74
2022/08/03 04:14:46;;;;;;;3.90;3.00;;;;;;;27.97;74.80;100146.56;5069727;28;20210;-74
2022/08/03 04:17:14;;;;;;;3.42;3.22;;;;;;;28.40;72.65;100141.50;5068586;28;20588;-74
2022/08/03 04:19:45;;;;;;;5.93;3.03;;;;;;;28.54;70.55;100150.44;5069654;28;20230;-76
2022/08/03 04:22:13;;;;;;;3.10;2.90;;;;;;;28.47;68.63;100097.50;5068089;28;20198;-75
2022/08/03 04:24:44;;;;;;;3.40;3.10;;;;;;;28.78;67.68;100147.34;5072640;28;20207;-75
2022/08/03 04:27:14;;;;;;;9.95;3.20;;;;;;;28.33;69.05;100142.81;5081182;28;20639;-75
2022/08/03 04:29:47;;;;;;;4.13;3.13;;;;;;;28.38;69.73;100146.06;5087273;28;20870;-74
2022/08/03 04:32:15;;;;;;;3.22;2.92;;;;;;;27.56;70.59;100146.16;5082309;28;20199;-75
2022/08/03 04:34:42;;;;;;;7.63;3.10;;;;;;;27.43;73.02;100144.22;5069936;28;20209;-74
2022/08/03 04:37:12;;;;;;;4.43;2.53;;;;;;;27.55;71.83;100148.91;5034031;28;20187;-74
2022/08/03 04:39:42;;;;;;;2.80;2.55;;;;;;;27.99;70.02;100149.16;5069946;28;20597;-74
2022/08/03 04:42:13;;;;;;;4.05;2.70;;;;;;;28.27;66.47;100148.50;5087559;28;20193;-74
2022/08/03 04:44:44;;;;;;;3.05;2.50;;;;;;;29.05;64.10;100151.88;5088763;28;20641;-73
2022/08/03 04:47:11;;;;;;;2.75;2.35;;;;;;;29.06;59.95;100115.38;5058197;28;20697;-74
2022/08/03 04:49:38;;;;;;;2.25;2.15;;;;;;;29.31;59.78;100154.84;5069993;28;20209;-74
2022/08/03 04:52:08;;;;;;;2.65;2.40;;;;;;;29.74;57.65;100169.94;5071674;28;20633;-74
2022/08/03 04:54:40;;;;;;;8.13;2.40;;;;;;;30.13;56.96;100171.94;5068513;28;20286;-74
2022/08/03 04:57:07;;;;;;;4.68;2.30;;;;;;;30.81;53.59;100166.56;5087147;28;20243;-74
2022/08/03 04:59:34;;;;;;;2.72;2.35;;;;;;;30.88;52.42;100173.25;5069703;28;20209;-77
2022/08/03 05:02:02;;;;;;;9.48;2.40;;;;;;;31.06;52.60;100173.84;5069836;28;20563;-75
2022/08/03 05:04:29;;;;;;;2.78;2.58;;;;;;;31.65;51.26;100175.94;5070583;28;20221;-74
2022/08/03 05:06:55;;;;;;;2.38;2.28;;;;;;;30.83;50.81;100136.03;5080994;28;20198;-74
2022/08/03 05:09:22;;;;;;;6.32;2.88;;;;;;;31.52;50.35;100177.78;5069889;28;20217;-75
2022/08/03 05:11:49;;;;;;;2.00;1.90;;;;;;;31.54;49.83;100183.00;5069702;28;20300;-74
2022/08/03 05:14:16;;;;;;;3.83;2.67;;;;;;;31.38;50.41;100181.41;5069795;28;20194;-74
2022/08/03 05:16:43;;;;;;;2.60;2.42;;;;;;;31.97;48.86;100184.38;5060414;28;20293;-75
2022/08/03 05:19:11;;;;;;;3.00;2.70;;;;;;;32.40;47.36;100183.00;5071895;28;20226;-75
2022/08/03 05:21:38;;;;;;;2.60;2.30;;;;;;;32.35;45.81;100187.88;5076661;28;20671;-76
2022/08/03 05:24:05;;;;;;;2.42;2.33;;;;;;;31.23;46.97;100161.00;5069299;28;20201;-76
2022/08/03 05:26:32;;;;;;;2.22;2.13;;;;;;;30.28;49.81;100164.75;5074001;28;20202;-76
2022/08/03 05:28:59;;;;;;;2.45;2.25;;;;;;;30.01;49.64;100189.63;5051007;28;20674;-77
2022/08/03 05:31:26;;;;;;;2.20;2.10;;;;;;;30.65;49.08;100195.31;5074522;28;21818;-77
2022/08/03 05:33:53;;;;;;;3.78;2.13;;;;;;;29.72;49.13;100198.56;5073711;28;20198;-75
2022/08/03 05:36:21;;;;;;;4.10;2.10;;;;;;;29.51;51.86;100198.06;5072723;28;20194;-77
2022/08/03 05:38:48;;;;;;;8.02;2.50;;;;;;;29.81;50.95;100190.00;5070729;28;20226;-74
2022/08/03 05:41:15;;;;;;;2.38;2.28;;;;;;;29.83;49.24;100173.84;5070183;28;20206;-75
2022/08/03 05:43:42;;;;;;;2.45;2.15;;;;;;;29.41;49.83;100198.72;5037181;28;20198;-75
2022/08/03 05:46:09;;;;;;;2.63;2.45;;;;;;;29.77;50.30;100198.28;5073341;28;20198;-76
2022/08/03 05:48:35;;;;;;;2.10;2.00;;;;;;;30.14;49.65;100191.53;5072430;28;20206;-77
2022/08/03 05:51:04;;;;;;;2.72;2.53;;;;;;;30.26;50.14;100198.75;5071971;28;20206;-77
2022/08/03 05:53:34;;;;;;;2.58;2.30;;;;;;;30.49;48.19;100214.22;5072068;28;20826;-76
2022/08/03 05:56:01;;;;;;;2.47;2.30;;;;;;;29.85;50.45;100214.75;5072297;28;20194;-75
2022/08/03 05:58:28;;;;;;;3.58;2.00;;;;;;;29.61;49.40;100160.94;5052661;28;20708;-76
2022/08/03 06:00:55;;;;;;;3.58;2.08;;;;;;;29.71;49.41;100217.41;5052807;28;20203;-76
2022/08/03 06:03:22;;;;;;;4.22;2.55;;;;;;;28.93;50.94;100218.53;5063913;28;20203;-76
2022/08/03 06:05:49;;;;;;;2.47;2.38;;;;;;;29.72;50.15;100217.28;5070525;28;20240;-76
2022/08/03 06:08:15;;;;;;;4.13;2.50;;;;;;;29.61;50.33;100221.59;5071019;28;20868;-77
2022/08/03 06:10:44;;;;;;;2.90;2.53;;;;;;;29.37;51.03;100210.56;5070330;28;20194;-77
2022/08/03 06:13:10;;;;;;;2.10;2.00;;;;;;;28.93;51.23;100216.69;5070282;28;20745;-76
2022/08/03 06:15:37;;;;;;;2.40;2.20;;;;;;;28.80;51.82;100207.69;5070547;28;20213;-77
2022/08/03 06:18:04;;;;;;;3.63;2.25;;;;;;;29.18;50.41;100217.94;5056339;28;20211;-77
2022/08/03 06:20:31;;;;;;;4.78;1.90;;;;;;;28.55;49.20;100205.53;5080823;28;20206;-78
2022/08/03 06:22:59;;;;;;;2.00;1.90;;;;;;;28.60;50.05;100210.63;5090501;28;20202;-76
2022/08/03 06:25:25;;;;;;;2.00;1.90;;;;;;;28.73;51.23;100200.97;5080457;28;20203;-78
2022/08/03 06:27:54;;;;;;;1.98;1.63;;;;;;;28.75;51.08;100225.78;5070933;28;20215;-76
2022/08/03 06:30:20;;;;;;;2.03;1.92;;;;;;;28.75;50.27;100225.78;5073847;28;20210;-77
2022/08/03 06:32:47;;;;;;;2.15;2.05;;;;;;;29.20;50.88;100232.06;5072827;28;20211;-77
2022/08/03 06:35:15;;;;;;;2.78;2.10;;;;;;;29.08;49.46;100224.75;5053379;28;20197;-76
2022/08/03 06:37:44;;;;;;;2.10;1.90;;;;;;;29.20;48.28;100232.06;5069861;28;20205;-77
2022/08/03 06:40:12;;;;;;;2.55;1.77;;;;;;;28.68;48.62;100213.72;5061974;28;20222;-77
2022/08/03 06:42:39;;;;;;;2.45;2.20;;;;;;;28.89;48.41;100238.34;5070903;28;20202;-76
2022/08/03 06:45:09;;;;;;;5.10;2.35;;;;;;;28.92;48.13;100206.97;5070024;28;20198;-73
2022/08/03 06:47:37;;;;;;;2.20;2.10;;;;;;;28.90;47.08;100240.03;5081712;28;20210;-77
2022/08/03 06:50:04;;;;;;;2.53;2.33;;;;;;;28.69;47.62;100241.28;5076702;28;20214;-77
2022/08/03 06:52:31;;;;;;;2.10;2.00;;;;;;;28.52;47.61;100196.84;5069657;28;20791;-77
2022/08/03 06:54:58;;;;;;;2.97;2.15;;;;;;;28.64;47.58;100204.16;5070774;28;20207;-75
2022/08/03 06:57:25;;;;;;;2.22;2.03;;;;;;;28.54;47.73;100229.63;5071260;28;20281;-77
2022/08/03 06:59:52;;;;;;;2.35;2.15;;;;;;;28.96;47.98;100235.22;5070497;28;20238;-76
2022/08/03 07:02:20;;;;;;;2.35;2.15;;;;;;;28.98;47.50;100238.66;5070351;28;20206;-75
2022/08/03 07:04:47;;;;;;;1.85;1.75;;;;;;;29.05;46.51;100229.34;5069711;28;20238;-76
2022/08/03 07:07:14;;;;;;;1.80;1.70;;;;;;;29.11;46.79;100232.59;5052452;28;20195;-75
2022/08/03 07:09:41;;;;;;;2.15;1.92;;;;;;;29.03;47.00;100217.91;5071205;28;20203;-74
2022/08/03 07:12:08;;;;;;;2.22;1.95;;;;;;;28.87;48.67;100234.88;5070976;28;20203;-75
2022/08/03 07:14:35;;;;;;;2.08;1.98;;;;;;;28.92;48.16;100233.69;5068451;28;20213;-74
2022/08/03 07:17:02;;;;;;;2.00;1.90;;;;;;;29.19;47.16;100211.63;5071000;28;20206;-75
2022/08/03 07:19:30;;;;;;;2.10;2.00;;;;;;;29.29;47.42;100237.72;5085538;28;20222;-74
2022/08/03 07:21:57;;;;;;;2.10;2.00;;;;;;;29.27;48.43;100234.31;5071073;28;20209;-74
2022/08/03 07:24:24;;;;;;;2.35;1.85;;;;;;;29.09;47.46;100237.16;5070501;28;20501;-74
2022/08/03 07:26:51;;;;;;;2.08;1.95;;;;;;;29.12;47.17;100237.84;5051390;28;20198;-75
2022/08/03 07:29:18;;;;;;;4.90;1.90;;;;;;;29.12;46.97;100235.16;5070538;28;20191;-76
2022/08/03 07:31:47;;;;;;;2.20;1.80;;;;;;;29.17;47.14;100233.09;5070117;28;20199;-76
2022/08/03 07:34:15;;;;;;;4.13;1.90;;;;;;;29.36;47.65;100227.56;5070062;28;20663;-76
2022/08/03 07:36:43;;;;;;;2.72;2.22;;;;;;;29.21;47.09;100239.13;5070312;28;20202;-76
2022/08/03 07:39:10;;;;;;;11.93;1.90;;;;;;;28.99;48.06;100239.53;5084637;28;20241;-75
2022/08/03 07:41:37;;;;;;;4.93;1.80;;;;;;;29.07;48.21;100234.59;5069973;28;20230;-76
2022/08/03 07:44:04;;;;;;;6.25;1.83;;;;;;;29.00;47.28;100231.41;5069544;28;20264;-75
2022/08/03 07:46:31;;;;;;;1.75;1.65;;;;;;;28.85;47.51;100215.44;5034312;28;20206;-76
2022/08/03 07:48:58;;;;;;;1.90;1.77;;;;;;;29.13;48.18;100236.03;5069139;28;20665;-76
2022/08/03 07:51:25;;;;;;;2.00;1.90;;;;;;;29.22;46.67;100236.34;5069757;28;20205;-76
2022/08/03 07:53:56;;;;;;;1.98;1.80;;;;;;;29.34;47.57;100234.78;5070101;28;20203;-76
2022/08/03 07:56:23;;;;;;;2.65;2.05;;;;;;;29.41;47.50;100220.97;5069790;28;20194;-76
2022/08/03 07:58:50;;;;;;;2.08;1.95;;;;;;;29.58;47.47;100200.38;5069613;28;20198;-76
2022/08/03 08:01:18;;;;;;;4.03;2.33;;;;;;;29.75;46.37;100235.78;5070063;28;20217;-76
2022/08/03 08:03:45;;;;;;;4.22;1.90;;;;;;;29.70;46.38;100240.59;5070829;28;20266;-75
2022/08/03 08:06:12;;;;;;;2.00;1.90;;;;;;;29.16;47.06;100225.16;5089684;28;20443;-75
2022/08/03 08:08:40;;;;;;;2.88;2.00;;;;;;;29.36;47.08;100227.56;5076428;28;20194;-75
2022/08/03 08:11:08;;;;;;;1.70;1.60;;;;;;;29.45;47.53;100243.88;5074737;28;20202;-76
2022/08/03 08:13:36;;;;;;;2.28;1.60;;;;;;;29.59;46.77;100240.38;5070480;28;20603;-76
2022/08/03 08:16:03;;;;;;;2.25;2.00;;;;;;;29.32;46.40;100226.03;5089934;28;20216;-76
2022/08/03 08:18:30;;;;;;;3.28;2.15;;;;;;;29.54;47.52;100243.31;5054028;28;20209;-76
2022/08/03 08:20:57;;;;;;;2.45;1.83;;;;;;;29.84;46.82;100251.31;5089627;28;20622;-76
2022/08/03 08:23:24;;;;;;;1.73;1.63;;;;;;;29.66;45.93;100248.88;5089827;28;20204;-77
2022/08/03 08:25:52;;;;;;;2.65;2.03;;;;;;;29.60;45.39;100235.91;5089629;28;20197;-76
2022/08/03 08:28:21;;;;;;;1.90;1.80;;;;;;;29.92;45.71;100249.03;5089748;28;20205;-75
2022/08/03 08:30:48;;;;;;;3.53;2.30;;;;;;;30.00;45.53;100257.44;5089864;28;20205;-77
2022/08/03 08:33:15;;;;;;;3.92;2.55;;;;;;;30.02;45.03;100250.19;5089778;28;20197;-75
2022/08/03 08:35:42;;;;;;;2.10;2.00;;;;;;;29.77;45.54;100249.09;5089919;28;20595;-76
2022/08/03 08:38:09;;;;;;;2.58;2.10;;;;;;;29.47;46.22;100246.44;5089673;28;20209;-78
2022/08/03 08:40:35;;;;;;;2.22;2.13;;;;;;;29.49;44.93;100224.06;5053611;28;20791;-77
2022/08/03 08:43:03;;;;;;;3.70;2.13;;;;;;;29.94;45.11;100248.94;5089883;28;20216;-77
2022/08/03 08:45:31;;;;;;;2.30;2.20;;;;;;;29.92;45.18;100249.03;5089755;28;20286;-78
2022/08/03 08:48:02;;;;;;;2.58;2.33;;;;;;;29.97;45.48;100248.72;5089609;28;20692;-74
2022/08/03 08:50:30;;;;;;;2.40;2.30;;;;;;;29.91;44.40;100209.00;5089588;28;20205;-75
2022/08/03 08:53:02;;;;;;;2.25;2.13;;;;;;;29.94;45.30;100260.50;5089427;28;20200;-75
2022/08/03 08:55:29;;;;;;;2.28;2.17;;;;;;;30.20;45.30;100249.97;5089488;28;20217;-76
2022/08/03 08:58:01;;;;;;;2.10;2.00;;;;;;;30.22;45.04;100240.03;5089741;28;20198;-74
2022/08/03 09:00:29;;;;;;;2.72;2.50;;;;;;;30.36;46.84;100242.69;5092850;28;20229;-72
2022/08/03 09:02:57;;;;;;;2.42;2.25;;;;;;;30.65;44.80;100241.69;5093074;28;20607;-72
2022/08/03 09:05:24;;;;;;;3.33;2.10;;;;;;;30.77;43.67;100245.41;5086928;28;20237;-72
2022/08/03 09:07:51;;;;;;;2.40;2.20;;;;;;;30.65;44.65;100240.84;5092736;28;20197;-73
2022/08/03 09:10:20;;;;;;;5.97;2.67;;;;;;;30.58;45.28;100245.72;5055587;28;20273;-72
2022/08/03 09:12:49;;;;;;;2.00;1.90;;;;;;;30.67;44.07;100242.47;5080446;28;20622;-72
2022/08/03 09:15:18;;;;;;;2.67;2.50;;;;;;;30.82;44.61;100241.44;5054085;28;20665;-73
2022/08/03 09:17:44;;;;;;;2.97;2.50;;;;;;;30.67;44.82;100241.59;5093501;28;20578;-72
2022/08/03 09:20:13;;;;;;;2.33;2.20;;;;;;;30.65;43.73;100235.47;5093327;28;20225;-72
2022/08/03 09:22:55;;;;;;;2.70;2.50;;;;;;;30.58;45.25;100223.44;5093278;28;20294;-72
2022/08/03 09:25:31;;;;;;;2.40;2.30;;;;;;;30.86;44.72;100234.94;5093611;28;20216;-72
2022/08/03 09:28:09;;;;;;;2.65;2.45;;;;;;;30.82;44.24;100209.31;5074579;28;20212;-72
2022/08/03 09:30:37;;;;;;;2.22;2.13;;;;;;;30.94;44.59;100196.91;5093328;28;20255;-72
2022/08/03 09:33:05;;;;;;;2.40;2.30;;;;;;;31.05;44.60;100210.50;5078881;28;20198;-72
2022/08/03 09:35:41;;;;;;;2.85;2.65;;;;;;;31.06;44.61;100219.38;5093333;28;20197;-76
2022/08/03 09:38:12;;;;;;;2.78;2.65;;;;;;;31.12;43.83;100222.50;5089790;28;20205;-76
2022/08/03 09:40:39;;;;;;;2.63;2.42;;;;;;;31.11;44.41;100211.91;5070629;28;20709;-74
2022/08/03 09:43:07;;;;;;;2.60;2.40;;;;;;;30.90;43.78;100169.50;5064285;28;20206;-73
2022/08/03 09:45:35;;;;;;;3.40;2.55;;;;;;;31.31;44.55;100212.25;5055123;28;20207;-73
2022/08/03 09:48:21;;;;;;;3.47;2.30;;;;;;;30.95;44.05;100193.28;5032332;28;20295;-74
2022/08/03 09:50:50;;;;;;;3.08;2.70;;;;;;;30.99;43.79;100210.91;5051251;28;20210;-76
2022/08/03 09:53:19;;;;;;;3.42;3.13;;;;;;;30.94;44.35;100204.97;5051014;28;20301;-76
2022/08/03 09:55:51;;;;;;;2.60;2.50;;;;;;;31.43;44.44;100200.69;5051244;28;20761;-75
2022/08/03 09:58:20;;;;;;;2.13;2.03;;;;;;;31.28;43.00;100203.56;5051928;28;20199;-75
2022/08/03 10:36:52;;;;;;;2.80;2.60;;;;;;;31.26;42.17;100154.56;5087258;27;20542;-72
2022/08/03 10:39:23;;;;;;;8.13;4.95;;;;;;;31.83;41.93;100195.25;5087410;28;20665;-72
2022/08/03 10:41:51;;;;;;;4.38;3.17;;;;;;;31.99;42.43;100176.22;5087482;28;20193;-72
2022/08/03 10:44:20;;;;;;;5.32;3.03;;;;;;;31.97;40.42;100179.00;5067751;28;20193;-72
2022/08/03 10:46:49;;;;;;;3.25;2.55;;;;;;;31.94;40.79;100181.91;5102014;28;20323;-72
2022/08/03 10:49:18;;;;;;;3.35;2.97;;;;;;;32.40;40.67;100168.72;5107883;28;20197;-72
2022/08/03 10:51:47;;;;;;;3.60;2.97;;;;;;;32.69;40.13;100171.97;5105615;28;20208;-71
2022/08/03 10:57:33;;;;;;;3.13;2.83;;;;;;;32.94;39.45;100171.81;5107254;28;20213;-72
2022/08/03 10:57:48;;;;;;;5.35;4.75;;;;;;;33.25;40.14;100173.03;5106494;28;20279;-73
2022/08/03 11:00:16;;;;;;;5.78;2.40;;;;;;;32.80;39.17;100180.94;5101418;28;20202;-74
2022/08/03 11:03:01;;;;;;;5.30;4.85;;;;;;;32.93;39.92;100160.22;5085457;28;20205;-73
2022/08/03 11:05:30;;;;;;;4.68;4.22;;;;;;;33.04;39.57;100156.69;5079982;28;20201;-73
2022/08/03 11:08:22;;;;;;;7.43;3.40;;;;;;;33.50;39.14;100172.84;5087106;28;20794;-72
2022/08/03 11:10:52;;;;;;;3.50;3.13;;;;;;;33.74;39.07;100172.78;5086568;28;20190;-73
2022/08/03 11:13:21;;;;;;;3.78;3.15;;;;;;;34.21;38.13;100171.69;5086966;28;20205;-71
2022/08/03 11:15:51;;;;;;;4.15;3.85;;;;;;;33.99;37.77;100166.28;5067136;28;20214;-71
2022/08/03 11:18:18;;;;;;;3.17;2.90;;;;;;;33.71;37.42;100154.19;5086945;28;20701;-74
2022/08/03 11:20:50;;;;;;;2.92;2.38;;;;;;;33.34;36.90;100129.31;5086703;28;20676;-71
2022/08/03 11:23:18;;;;;;;2.75;2.55;;;;;;;33.36;38.22;100152.41;5086518;28;20193;-72
2022/08/03 11:26:16;;;;;;;2.75;2.38;;;;;;;33.61;37.28;100154.03;5051162;28;20204;-71
2022/08/03 11:28:44;;;;;;;3.85;2.50;;;;;;;33.36;37.30;100151.53;5086754;28;20196;-72
2022/08/03 11:31:57;;;;;;;4.85;2.80;;;;;;;33.22;37.84;100147.25;5051109;28;20569;-72
2022/08/03 11:34:24;;;;;;;2.50;2.40;;;;;;;33.41;37.56;100130.53;5085929;28;20646;-73
2022/08/03 11:37:23;;;;;;;5.35;2.45;;;;;;;33.04;37.76;100139.72;5086469;28;20225;-73
2022/08/03 11:39:53;;;;;;;3.50;2.53;;;;;;;32.93;38.66;100127.97;5086374;28;20190;-72
2022/08/03 11:42:42;;;;;;;3.05;2.85;;;;;;;32.45;38.66;100137.03;5051033;28;20665;-73
2022/08/03 11:45:10;;;;;;;2.60;2.50;;;;;;;32.43;38.25;100125.53;5085865;28;20204;-72
2022/08/03 11:47:39;;;;;;;3.00;2.80;;;;;;;32.70;38.74;100120.81;5075787;28;20658;-73
2022/08/03 11:50:07;;;;;;;2.85;2.50;;;;;;;32.55;37.67;100124.63;5072810;28;20237;-71
2022/08/03 11:52:40;;;;;;;2.40;2.30;;;;;;;32.94;37.94;100110.03;5004211;28;20198;-73
2022/08/03 11:55:12;;;;;;;5.43;3.88;;;;;;;33.30;38.24;100117.94;5070362;28;20249;-73
2022/08/03 11:57:40;;;;;;;3.53;2.85;;;;;;;33.56;36.94;100118.59;5072309;28;20706;-71
2022/08/03 12:00:28;;;;;;;3.40;3.15;;;;;;;33.60;37.70;100128.13;5072159;28;20198;-72
2022/08/03 12:03:04;;;;;;;3.88;2.70;;;;;;;33.47;37.57;100107.69;5072727;28;20225;-72
2022/08/03 12:05:42;;;;;;;4.05;2.50;;;;;;;33.46;37.04;100098.78;5072201;28;20351;-72
2022/08/03 12:08:11;;;;;;;3.30;2.25;;;;;;;32.99;37.47;100112.38;5072343;28;20206;-73
2022/08/03 12:10:38;;;;;;;2.70;2.50;;;;;;;33.00;38.82;100092.59;5072467;28;20668;-72
2022/08/03 12:13:08;;;;;;;3.00;2.40;;;;;;;33.15;36.92;100104.84;5072108;28;20198;-72
2022/08/03 12:15:36;;;;;;;3.05;2.10;;;;;;;33.23;37.23;100107.78;5071916;28;20253;-72